.
WxDataArchive / Data Records for 2007-05-15
2007-05-14 May 2007 2007-05-16

Data Records for Tuesday, 15 May 2007

Time	Temp	Chill	HIndex	Humid	Dewpt	 Wind 	HiWind	WindDir	Rain 	Barom 
-----	----	-----	------	-----	-----	------	------	-------	-----	----- 
00:00	68.9	68.9	68.9	36	40.8	1	4	248	0.00	29.910 
00:05	68.8	68.8	68.8	36	40.7	2	5	248	0.00	29.905 
00:10	68.8	68.8	68.8	36	40.7	1	6	270	0.00	29.905 
00:15	68.8	68.8	68.8	37	41.5	2	6	248	0.00	29.908 
00:20	68.6	68.6	68.6	36	40.6	1	3	225	0.00	29.910 
00:25	68.8	68.8	68.8	36	40.7	2	5	248	0.00	29.910 
00:30	68.6	68.6	68.6	37	41.3	2	7	248	0.00	29.909 
00:35	68.4	68.4	68.4	37	41.1	2	5	248	0.00	29.911 
00:40	68.4	68.4	68.4	37	41.1	2	5	248	0.00	29.912 
00:45	68.3	68.3	68.3	38	41.7	1	4	248	0.00	29.912 
00:50	68.1	68.1	68.1	38	41.5	1	3	248	0.00	29.912 
00:55	67.9	67.9	67.9	39	42.0	1	5	248	0.00	29.910 
01:00	67.9	67.9	67.9	39	42.0	2	5	248	0.00	29.909 
01:05	67.9	67.9	67.9	39	42.0	1	4	248	0.00	29.909 
01:10	67.9	67.9	67.9	38	41.3	2	5	248	0.00	29.909 
01:15	67.9	67.9	67.9	39	42.0	2	4	248	0.00	29.908 
01:20	67.9	67.9	67.9	38	41.3	2	6	248	0.00	29.906 
01:25	67.8	67.8	67.8	39	41.9	2	6	248	0.00	29.904 
01:30	67.9	67.9	67.9	38	41.3	2	5	248	0.00	29.903 
01:35	67.8	67.8	67.8	39	41.9	2	6	270	0.00	29.903 
01:40	67.8	67.8	67.8	38	41.3	2	5	270	0.00	29.903 
01:45	67.8	67.8	67.8	38	41.3	2	5	248	0.00	29.901 
01:50	67.8	67.8	67.8	38	41.3	2	4	248	0.00	29.896 
01:55	67.8	67.8	67.8	38	41.3	2	4	248	0.00	29.897 
02:00	67.6	67.6	67.6	39	41.8	2	7	248	0.00	29.895 
02:05	67.6	67.6	67.6	38	41.1	2	6	248	0.00	29.895 
02:10	67.6	67.6	67.6	38	41.1	1	5	248	0.00	29.895 
02:15	67.4	67.4	67.4	38	40.9	2	6	248	0.00	29.895 
02:20	67.4	67.4	67.4	38	40.9	2	7	248	0.00	29.895 
02:25	67.3	67.3	67.3	38	40.8	2	5	248	0.00	29.897 
02:30	67.4	67.4	67.4	38	40.9	2	5	270	0.00	29.895 
02:35	67.6	67.6	67.6	38	41.1	2	5	248	0.00	29.896 
02:40	67.6	67.6	67.6	38	41.1	1	4	248	0.00	29.894 
02:45	67.6	67.6	67.6	38	41.1	2	5	248	0.00	29.896 
02:50	67.6	67.6	67.6	38	41.1	1	5	270	0.00	29.900 
02:55	67.6	67.6	67.6	39	41.8	2	6	248	0.00	29.902 
03:00	67.4	67.4	67.4	39	41.6	2	4	248	0.00	29.905 
03:05	67.3	67.3	67.3	39	41.5	1	4	248	0.00	29.897 
03:10	67.1	67.1	67.1	39	41.3	2	6	248	0.00	29.895 
03:15	67.3	67.3	67.3	39	41.5	2	5	248	0.00	29.893 
03:20	67.3	67.3	67.3	39	41.5	3	6	248	0.00	29.893 
03:25	67.3	67.3	67.3	39	41.5	2	5	248	0.00	29.892 
03:30	67.1	67.1	67.1	39	41.3	2	5	248	0.00	29.889 
03:35	67.1	67.1	67.1	39	41.3	2	6	248	0.00	29.890 
03:40	66.9	66.9	66.9	39	41.1	2	5	248	0.00	29.888 
03:45	66.9	66.9	66.9	40	41.8	2	6	248	0.00	29.889 
03:50	66.8	66.8	66.8	40	41.7	1	4	248	0.00	29.890 
03:55	66.6	66.6	66.6	41	42.2	1	5	248	0.00	29.891 
04:00	66.4	66.4	66.4	41	42.0	1	5	248	0.00	29.891 
04:05	66.3	66.3	66.3	41	41.9	1	4	248	0.00	29.889 
04:10	66.1	66.1	66.1	42	42.3	2	6	248	0.00	29.889 
04:15	66.0	66.0	66.0	43	42.9	1	3	270	0.00	29.889 
04:20	65.8	65.8	65.8	42	42.1	2	5	270	0.00	29.894 
04:25	65.8	65.8	65.8	43	42.7	1	4	248	0.00	29.893 
04:30	65.6	65.6	65.6	43	42.5	1	4	248	0.00	29.894 
04:35	65.6	65.6	65.6	43	42.5	1	4	248	0.00	29.894 
04:40	65.6	65.6	65.6	43	42.5	1	4	248	0.00	29.893 
04:45	65.5	65.5	65.5	43	42.4	1	4	248	0.00	29.892 
04:50	65.3	65.3	65.3	43	42.2	1	3	225	0.00	29.890 
04:55	65.2	65.2	65.2	44	42.7	1	4	248	0.00	29.887 
05:00	65.2	65.2	65.2	44	42.7	1	4	248	0.00	29.882 
05:05	65.2	65.2	65.2	44	42.7	1	4	270	0.00	29.885 
05:10	65.2	65.2	65.2	44	42.7	1	3	248	0.00	29.885 
05:15	65.2	65.2	65.2	45	43.3	1	4	248	0.00	29.884 
05:20	65.2	65.2	65.2	45	43.3	1	4	248	0.00	29.884 
05:25	65.0	65.0	65.0	45	43.1	2	5	248	0.00	29.881 
05:30	65.0	65.0	65.0	46	43.7	1	3	248	0.00	29.880 
05:35	64.7	64.7	64.7	46	43.4	1	4	248	0.00	29.881 
05:40	64.5	64.5	64.5	47	43.8	1	4	248	0.00	29.881 
05:45	64.5	64.5	64.5	46	43.3	2	4	248	0.00	29.880 
05:50	64.7	64.7	64.7	46	43.4	1	3	248	0.00	29.877 
05:55	64.8	64.8	64.8	46	43.5	2	4	248	0.00	29.879 
06:00	65.0	65.0	65.0	46	43.7	1	4	248	0.00	29.880 
06:05	65.2	65.2	65.2	46	43.9	1	4	270	0.00	29.880 
06:10	65.8	65.8	65.8	45	43.9	2	7	270	0.00	29.877 
06:15	66.1	66.1	66.1	45	44.1	2	5	248	0.00	29.873 
06:20	66.6	66.6	66.6	45	44.6	2	5	248	0.00	29.874 
06:25	66.9	66.9	66.9	45	44.9	2	7	248	0.00	29.875 
06:30	67.3	67.3	67.3	44	44.6	2	5	248	0.00	29.875 
06:35	67.6	67.6	67.6	44	44.9	2	4	248	0.00	29.876 
06:40	67.9	67.9	67.9	45	45.8	2	9	248	0.00	29.872 
06:45	68.1	68.1	68.1	44	45.4	2	5	248	0.00	29.867 
06:50	68.3	68.3	68.3	45	46.1	2	6	248	0.00	29.867 
06:55	68.4	68.4	68.4	45	46.2	2	4	248	0.00	29.867 
07:00	68.6	68.6	68.6	45	46.4	2	7	248	0.00	29.865 
07:05	68.9	68.9	68.9	45	46.7	2	6	248	0.00	29.866 
07:10	69.1	69.1	69.1	45	46.9	2	4	248	0.00	29.868 
07:15	69.4	69.4	69.4	44	46.5	2	5	248	0.00	29.867 
07:20	69.9	69.9	69.9	43	46.4	2	11	248	0.00	29.864 
07:25	70.3	70.3	70.3	43	46.7	2	6	225	0.00	29.863 
07:30	70.8	70.8	70.8	42	46.6	3	7	248	0.00	29.863 
07:35	71.3	71.3	71.3	42	47.0	3	7	248	0.00	29.864 
07:40	71.8	71.8	71.8	42	47.5	3	10	225	0.00	29.861 
07:45	72.1	72.1	72.1	44	49.0	3	9	248	0.00	29.862 
07:50	72.5	72.5	72.5	41	47.4	3	7	248	0.00	29.861 
07:55	72.7	72.7	72.7	41	47.6	3	6	248	0.00	29.860 
08:00	72.8	72.8	72.8	42	48.4	3	10	270	0.00	29.860 
08:05	73.0	73.0	73.0	41	47.9	3	6	248	0.00	29.863 
08:10	73.3	73.3	73.3	41	48.2	3	7	248	0.00	29.863 
08:15	73.5	73.5	73.5	43	49.6	2	5	248	0.00	29.862 
08:20	73.9	73.9	73.9	42	49.3	3	7	270	0.00	29.862 
08:25	74.0	74.0	74.0	41	48.8	3	5	270	0.00	29.861 
08:30	74.4	74.4	74.4	43	50.4	2	4	248	0.00	29.860 
08:35	74.7	74.7	74.7	41	49.4	3	6	270	0.00	29.858 
08:40	75.1	75.1	77.6	41	49.8	3	6	248	0.00	29.856 
08:45	75.4	75.4	77.7	42	50.7	3	9	248	0.00	29.854 
08:50	75.6	75.6	77.7	41	50.2	4	8	248	0.00	29.853 
08:55	75.6	75.6	77.7	40	49.6	4	11	248	0.00	29.851 
09:00	75.8	75.8	77.8	42	51.1	3	6	248	0.00	29.849 
09:05	76.1	76.1	77.9	42	51.3	2	7	270	0.00	29.853 
09:10	76.3	76.3	78.0	41	50.8	3	7	248	0.00	29.851 
09:15	76.1	76.1	77.9	41	50.7	4	11	270	0.00	29.851 
09:20	76.3	76.3	77.9	40	50.2	3	6	270	0.00	29.849 
09:25	76.7	76.7	78.2	43	52.5	3	10	248	0.00	29.849 
09:30	77.0	77.0	78.3	41	51.5	3	8	248	0.00	29.847 
09:35	77.0	77.0	78.3	41	51.5	3	9	248	0.00	29.847 
09:40	77.0	77.0	78.2	40	50.8	4	7	248	0.00	29.848 
09:45	77.4	77.4	78.4	40	51.2	3	7	248	0.00	29.847 
09:50	77.7	77.7	78.6	40	51.4	3	7	248	0.00	29.844 
09:55	78.3	78.3	78.9	40	52.0	3	7	248	0.00	29.844 
10:00	78.6	78.6	79.0	39	51.5	3	9	248	0.00	29.843 
10:05	78.8	78.8	79.2	40	52.4	3	6	248	0.00	29.842 
10:10	79.2	79.2	79.5	42	54.1	3	7	248	0.00	29.840 
10:15	79.4	79.4	79.7	42	54.3	3	7	270	0.00	29.839 
10:20	79.8	79.8	79.7	39	52.6	3	8	248	0.00	29.840 
10:25	79.9	79.9	79.7	38	52.0	3	10	248	0.00	29.842 
10:30	80.3	80.3	80.1	39	53.1	4	7	248	0.00	29.838 
10:35	80.5	80.5	80.4	41	54.6	3	7	270	0.00	29.837 
10:40	80.9	80.9	80.5	39	53.6	3	11	248	0.00	29.834 
10:45	81.1	81.1	80.6	39	53.8	3	9	248	0.00	29.836 
10:50	81.2	81.2	80.7	39	53.9	3	6	248	0.00	29.830 
10:55	81.8	81.8	81.1	38	53.7	2	5	270	0.00	29.830 
11:00	82.2	82.2	81.4	38	54.0	3	6	248	0.00	29.828 
11:05	82.2	82.2	81.4	38	54.0	4	9	270	0.00	29.829 
11:10	82.4	82.4	81.4	37	53.5	4	7	270	0.00	29.827 
11:15	82.6	82.6	81.5	36	52.9	3	6	270	0.00	29.820 
11:20	82.6	82.6	81.6	37	53.7	3	10	270	0.00	29.816 
11:25	82.8	82.8	82.0	39	55.3	3	7	248	0.00	29.813 
11:30	83.0	83.0	81.8	36	53.3	4	10	270	0.00	29.811 
11:35	83.2	83.2	81.9	35	52.7	4	7	248	0.00	29.811 
11:40	83.8	83.8	82.5	36	54.0	2	4	270	0.00	29.808 
11:45	84.0	84.0	82.7	36	54.1	3	10	248	0.00	29.804 
11:50	84.3	84.3	83.0	36	54.4	3	7	270	0.00	29.800 
11:55	84.7	84.7	83.5	37	55.5	3	7	248	0.00	29.797 
12:00	84.7	84.7	83.2	35	54.0	4	9	270	0.00	29.795 
12:05	84.7	84.7	83.5	37	55.5	3	6	248	0.00	29.796 
12:10	84.9	84.9	83.4	35	54.2	4	11	270	0.00	29.794 
12:15	85.3	85.3	83.8	35	54.5	3	5	248	0.00	29.794 
12:20	85.7	85.7	84.2	35	54.9	4	11	248	0.00	29.792 
12:25	86.1	86.1	84.8	36	56.0	3	6	248	0.00	29.787 
12:30	86.1	86.1	84.4	34	54.4	4	11	248	0.00	29.789 
12:35	86.3	86.3	84.6	34	54.6	3	12	248	0.00	29.784 
12:40	86.3	86.3	84.5	33	53.8	4	12	270	0.00	29.781 
12:45	86.5	86.5	85.2	36	56.3	3	6	248	0.00	29.777 
12:50	86.7	86.7	85.2	35	55.7	3	9	270	0.00	29.770 
12:55	87.2	87.2	85.6	34	55.4	3	9	248	0.00	29.772 
13:00	87.2	87.2	85.8	35	56.2	4	14	270	0.00	29.772 
13:05	87.0	87.0	85.4	34	55.2	4	10	270	0.00	29.764 
13:10	86.7	86.7	85.2	35	55.7	5	12	270	0.00	29.763 
13:15	87.0	87.0	85.4	34	55.2	3	10	270	0.00	29.761 
13:20	87.4	87.4	86.0	35	56.3	3	6	248	0.00	29.754 
13:25	87.4	87.4	85.4	32	53.9	5	10	248	0.00	29.750 
13:30	87.4	87.4	85.3	31	53.0	6	11	270	0.00	29.745 
13:35	87.4	87.4	85.4	32	53.9	4	13	270	0.00	29.745 
13:40	87.8	87.8	86.1	33	55.1	3	9	270	0.00	29.741 
13:45	87.8	87.8	85.7	31	53.4	5	13	248	0.00	29.737 
13:50	87.4	87.4	85.8	34	55.5	5	15	270	0.00	29.733 
13:55	87.8	87.8	85.7	31	53.4	4	8	270	0.00	29.734 
14:00	88.0	88.0	85.6	29	51.7	5	11	270	0.00	29.731 
14:05	88.2	88.2	86.3	32	54.6	2	7	248	0.00	29.730 
14:10	88.4	88.4	86.3	31	53.9	4	10	248	0.00	29.725 
14:15	88.2	88.2	86.1	31	53.7	4	9	248	0.00	29.721 
14:20	88.0	88.0	85.6	29	51.7	4	13	270	0.00	29.718 
14:25	87.4	87.4	85.0	29	51.2	5	14	270	0.00	29.716 
14:30	87.6	87.6	85.3	30	52.3	3	7	248	0.00	29.712 
14:35	88.2	88.2	86.1	31	53.7	3	6	270	0.00	29.706 
14:40	87.8	87.8	85.7	31	53.4	5	9	270	0.00	29.702 
14:45	88.0	88.0	85.9	31	53.5	5	10	270	0.00	29.700 
14:50	88.2	88.2	86.1	31	53.7	3	7	270	0.00	29.699 
14:55	88.2	88.2	85.9	30	52.8	3	14	270	0.00	29.690 
15:00	88.0	88.0	85.6	29	51.7	5	13	270	0.00	29.688 
15:05	88.0	88.0	85.7	30	52.6	5	16	270	0.00	29.686 
15:10	87.8	87.8	85.4	29	51.5	5	10	270	0.00	29.683 
15:15	88.2	88.2	85.8	29	51.9	3	6	270	0.00	29.679 
15:20	88.6	88.6	86.0	28	51.3	4	11	270	0.00	29.671 
15:25	88.4	88.4	86.0	29	52.1	3	8	248	0.00	29.671 
15:30	88.0	88.0	85.6	29	51.7	4	12	270	0.00	29.669 
15:35	87.4	87.4	85.3	31	53.0	4	16	270	0.00	29.667 
15:40	87.6	87.6	85.2	29	51.4	4	11	248	0.00	29.663 
15:45	88.0	88.0	85.4	28	50.8	4	9	248	0.00	29.658 
15:50	88.4	88.4	86.0	29	52.1	3	8	248	0.00	29.654 
15:55	87.6	87.6	85.3	30	52.3	4	11	248	0.00	29.656 
16:00	87.0	87.0	84.7	30	51.8	4	12	270	0.00	29.656 
16:05	86.3	86.3	84.0	30	51.2	6	18	270	0.00	29.655 
16:10	86.1	86.1	84.0	31	51.9	3	8	270	0.00	29.656 
16:15	86.1	86.1	84.0	31	51.9	4	10	248	0.00	29.654 
16:20	86.7	86.7	84.6	31	52.4	5	14	248	0.00	29.653 
16:25	86.5	86.5	84.5	32	53.1	4	10	270	0.00	29.655 
16:30	85.3	85.3	83.6	34	53.7	4	12	248	0.00	29.663 
16:35	83.6	83.6	82.9	40	56.7	4	13	270	0.00	29.671 
16:40	81.6	81.6	81.5	43	56.9	3	5	248	0.00	29.668 
16:45	80.7	80.7	81.1	47	58.6	1	4	248	0.00	29.671 
16:50	80.3	80.3	80.7	46	57.6	3	9	270	0.00	29.681 
16:55	76.0	76.0	78.0	62	62.0	6	13	270	0.04	29.694 
17:00	72.0	72.0	72.0	70	61.7	5	12	270	0.01	29.694 
17:05	70.3	70.3	70.3	72	60.8	4	7	270	0.00	29.693 
17:10	69.9	69.9	69.9	71	60.1	4	7	270	0.00	29.699 
17:15	69.6	69.6	69.6	74	60.9	2	5	270	0.02	29.684 
17:20	68.9	68.9	68.9	77	61.4	0	2	270	0.00	29.681 
17:25	68.9	68.9	68.9	77	61.4	0	2	270	0.00	29.682 
17:30	69.1	69.1	69.1	79	62.3	0	1	270	0.00	29.682 
17:35	69.8	69.8	69.8	76	61.9	3	12	270	0.00	29.715 
17:40	70.4	70.4	70.4	72	60.9	8	20	270	0.00	29.741 
17:45	69.6	69.6	69.6	72	60.2	6	16	270	0.00	29.738 
17:50	68.4	68.4	68.4	73	59.4	6	11	270	0.00	29.743 
17:55	67.3	67.3	67.3	77	59.8	4	10	270	0.00	29.746 
18:00	66.6	66.6	66.6	80	60.2	4	11	270	0.00	29.746 
18:05	66.3	66.3	66.3	80	59.9	4	9	270	0.00	29.747 
18:10	66.3	66.3	66.3	80	59.9	3	6	270	0.00	29.752 
18:15	66.1	66.1	66.1	81	60.1	4	7	270	0.00	29.757 
18:20	65.5	65.5	65.5	84	60.5	3	7	270	0.01	29.749 
18:25	64.8	64.8	64.8	86	60.5	3	10	270	0.01	29.750 
18:30	64.5	64.5	64.5	87	60.5	3	7	270	0.01	29.748 
18:35	64.3	64.3	64.3	87	60.3	4	11	270	0.01	29.748 
18:40	64.2	64.2	64.2	89	60.9	3	11	270	0.02	29.766 
18:45	63.9	63.9	63.9	90	60.9	2	5	270	0.02	29.764 
18:50	63.9	63.9	63.9	91	61.2	3	6	270	0.02	29.761 
18:55	63.9	63.9	63.9	92	61.5	3	6	270	0.02	29.761 
19:00	63.9	63.9	63.9	92	61.5	3	6	270	0.01	29.748 
19:05	63.9	63.9	63.9	92	61.5	3	6	270	0.01	29.743 
19:10	64.0	64.0	64.0	92	61.6	3	6	270	0.00	29.739 
19:15	64.0	64.0	64.0	91	61.3	2	6	270	0.01	29.732 
19:20	64.2	64.2	64.2	91	61.5	2	4	270	0.00	29.727 
19:25	64.2	64.2	64.2	90	61.2	1	5	292	0.00	29.724 
19:30	64.3	64.3	64.3	90	61.3	2	5	292	0.00	29.722 
19:35	64.7	64.7	64.7	89	61.4	1	3	315	0.00	29.722 
19:40	64.7	64.7	64.7	89	61.4	2	5	270	0.00	29.725 
19:45	64.8	64.8	64.8	89	61.5	1	3	248	0.00	29.726 
19:50	64.8	64.8	64.8	90	61.8	1	3	270	0.01	29.713 
19:55	64.8	64.8	64.8	89	61.5	2	4	270	0.00	29.711 
20:00	64.8	64.8	64.8	89	61.5	1	4	248	0.00	29.719 
20:05	65.0	65.0	65.0	89	61.7	1	4	270	0.00	29.724 
20:10	65.0	65.0	65.0	90	62.0	1	4	225	0.00	29.727 
20:15	64.8	64.8	64.8	90	61.8	1	3	270	0.00	29.723 
20:20	64.7	64.7	64.7	91	62.0	1	3	248	0.00	29.723 
20:25	64.7	64.7	64.7	91	62.0	1	3	248	0.00	29.724 
20:30	64.8	64.8	64.8	91	62.1	1	4	248	0.00	29.725 
20:35	64.8	64.8	64.8	91	62.1	1	4	248	0.00	29.728 
20:40	64.7	64.7	64.7	91	62.0	1	3	248	0.00	29.727 
20:45	64.7	64.7	64.7	91	62.0	1	4	248	0.00	29.724 
20:50	64.7	64.7	64.7	91	62.0	2	4	315	0.00	29.720 
20:55	64.8	64.8	64.8	92	62.4	2	5	315	0.00	29.721 
21:00	64.8	64.8	64.8	91	62.1	2	5	270	0.00	29.720 
21:05	65.0	65.0	65.0	91	62.3	2	5	248	0.00	29.719 
21:10	65.0	65.0	65.0	91	62.3	2	4	248	0.00	29.720 
21:15	65.0	65.0	65.0	91	62.3	3	7	248	0.00	29.718 
21:20	65.0	65.0	65.0	91	62.3	1	3	248	0.00	29.716 
21:25	64.8	64.8	64.8	91	62.1	2	4	248	0.00	29.708 
21:30	64.8	64.8	64.8	91	62.1	2	5	270	0.00	29.705 
21:35	64.8	64.8	64.8	91	62.1	2	4	270	0.00	29.697 
21:40	64.7	64.7	64.7	91	62.0	2	5	248	0.00	29.691 
21:45	64.5	64.5	64.5	90	61.5	3	10	315	0.00	29.690 
21:50	64.5	64.5	64.5	90	61.5	3	7	270	0.00	29.689 
21:55	64.3	64.3	64.3	89	61.0	3	6	270	0.00	29.692 
22:00	64.2	64.2	64.2	90	61.2	3	10	270	0.00	29.692 
22:05	64.0	64.0	64.0	90	61.0	3	7	292	0.01	29.688 
22:10	63.7	63.7	63.7	90	60.7	3	8	270	0.00	29.688 
22:15	62.7	62.7	62.7	88	59.1	3	9	292	0.00	29.691 
22:20	61.6	61.6	61.6	85	57.0	2	10	315	0.00	29.689 
22:25	60.7	60.7	60.7	84	55.8	2	7	315	0.00	29.692 
22:30	60.2	60.2	60.2	85	55.7	1	5	315	0.00	29.694 
22:35	59.9	59.9	59.9	86	55.7	2	7	270	0.00	29.701 
22:40	59.6	59.6	59.6	86	55.4	1	5	270	0.00	29.707 
22:45	59.5	59.5	59.5	87	55.6	1	5	270	0.00	29.711 
22:50	59.5	59.5	59.5	87	55.6	1	5	270	0.00	29.721 
22:55	59.5	59.5	59.5	87	55.6	1	4	270	0.00	29.732 
23:00	59.3	59.3	59.3	87	55.4	1	4	315	0.00	29.742 
23:05	59.3	59.3	59.3	87	55.4	1	4	292	0.00	29.738 
23:10	59.3	59.3	59.3	87	55.4	0	1	270	0.00	29.738 
23:15	59.3	59.3	59.3	88	55.7	0	1	270	0.00	29.739 
23:20	59.3	59.3	59.3	88	55.7	0	3	270	0.00	29.740 
23:25	59.3	59.3	59.3	87	55.4	1	3	270	0.00	29.744 
23:30	59.3	59.3	59.3	88	55.7	0	1	270	0.00	29.744 
23:35	59.2	59.2	59.2	87	55.3	0	2	248	0.00	29.742 
23:40	59.2	59.2	59.2	87	55.3	0	1	248	0.00	29.743 
23:45	59.2	59.2	59.2	87	55.3	0	2	248	0.00	29.746 
23:50	59.2	59.2	59.2	87	55.3	0	1	248	0.00	29.748 
23:55	59.2	59.2	59.2	87	55.3	0	1	248	0.00	29.744 

CoCoRaHS
IN-AL-39
A2 Web Hosting
Creative Commons License
GoDaddy
Look for:

loaded 2017-10-17 09:38:41 • last modified 2010-11-18 10:43:29
Privacy PolicyDisclaimer
• wx.awcolley.com is powered by PmWiki v.2002016 •
• all content (unless otherwise noted) © 2017 A W Colley